sensor_id;sensor_type;location;lat;lon;timestamp;P1;durP1;ratioP1;P2;durP2;ratioP2
3189;SDS011;1606;51.946;10.558;2023-04-08T00:01:06;9.33;;;4.63;;
3189;SDS011;1606;51.946;10.558;2023-04-08T00:03:34;10.77;;;5.03;;
3189;SDS011;1606;51.946;10.558;2023-04-08T00:06:02;10.13;;;4.83;;
3189;SDS011;1606;51.946;10.558;2023-04-08T00:08:30;12.17;;;6.90;;
3189;SDS011;1606;51.946;10.558;2023-04-08T00:10:58;9.83;;;5.77;;
3189;SDS011;1606;51.946;10.558;2023-04-08T00:13:27;11.50;;;6.10;;
3189;SDS011;1606;51.946;10.558;2023-04-08T00:15:55;10.23;;;5.63;;
3189;SDS011;1606;51.946;10.558;2023-04-08T00:18:23;11.33;;;6.03;;
3189;SDS011;1606;51.946;10.558;2023-04-08T00:20:52;14.57;;;6.25;;
3189;SDS011;1606;51.946;10.558;2023-04-08T00:23:19;10.47;;;5.57;;
3189;SDS011;1606;51.946;10.558;2023-04-08T00:25:47;9.90;;;5.37;;
3189;SDS011;1606;51.946;10.558;2023-04-08T00:28:16;12.20;;;6.07;;
3189;SDS011;1606;51.946;10.558;2023-04-08T00:30:45;10.98;;;5.90;;
3189;SDS011;1606;51.946;10.558;2023-04-08T00:33:13;12.00;;;6.37;;
3189;SDS011;1606;51.946;10.558;2023-04-08T00:35:41;11.83;;;6.23;;
3189;SDS011;1606;51.946;10.558;2023-04-08T00:38:09;11.83;;;6.97;;
3189;SDS011;1606;51.946;10.558;2023-04-08T00:40:37;12.03;;;7.10;;
3189;SDS011;1606;51.946;10.558;2023-04-08T00:43:05;11.23;;;5.97;;
3189;SDS011;1606;51.946;10.558;2023-04-08T00:45:32;12.30;;;6.47;;
3189;SDS011;1606;51.946;10.558;2023-04-08T00:48:02;13.20;;;7.00;;
3189;SDS011;1606;51.946;10.558;2023-04-08T00:50:30;12.20;;;6.70;;
3189;SDS011;1606;51.946;10.558;2023-04-08T00:52:58;11.23;;;6.17;;
3189;SDS011;1606;51.946;10.558;2023-04-08T00:55:26;13.13;;;7.37;;
3189;SDS011;1606;51.946;10.558;2023-04-08T00:57:54;11.47;;;6.70;;
3189;SDS011;1606;51.946;10.558;2023-04-08T01:00:22;12.07;;;6.67;;
3189;SDS011;1606;51.946;10.558;2023-04-08T01:02:53;11.73;;;7.30;;
3189;SDS011;1606;51.946;10.558;2023-04-08T01:05:33;11.00;;;6.30;;
3189;SDS011;1606;51.946;10.558;2023-04-08T01:08:06;12.03;;;6.70;;
3189;SDS011;1606;51.946;10.558;2023-04-08T01:10:36;13.20;;;7.30;;
3189;SDS011;1606;51.946;10.558;2023-04-08T01:13:08;15.43;;;6.63;;
3189;SDS011;1606;51.946;10.558;2023-04-08T01:15:38;12.67;;;7.47;;
3189;SDS011;1606;51.946;10.558;2023-04-08T01:18:09;11.90;;;6.90;;
3189;SDS011;1606;51.946;10.558;2023-04-08T01:20:40;16.23;;;8.00;;
3189;SDS011;1606;51.946;10.558;2023-04-08T01:23:09;14.50;;;7.70;;
3189;SDS011;1606;51.946;10.558;2023-04-08T01:25:46;13.60;;;7.93;;
3189;SDS011;1606;51.946;10.558;2023-04-08T01:28:16;12.60;;;7.47;;
3189;SDS011;1606;51.946;10.558;2023-04-08T01:30:45;15.17;;;7.87;;
3189;SDS011;1606;51.946;10.558;2023-04-08T01:33:14;13.93;;;7.00;;
3189;SDS011;1606;51.946;10.558;2023-04-08T01:35:44;14.30;;;8.07;;
3189;SDS011;1606;51.946;10.558;2023-04-08T01:38:13;15.50;;;8.07;;
3189;SDS011;1606;51.946;10.558;2023-04-08T01:40:43;15.13;;;8.10;;
3189;SDS011;1606;51.946;10.558;2023-04-08T01:43:14;13.70;;;7.10;;
3189;SDS011;1606;51.946;10.558;2023-04-08T01:45:43;14.03;;;7.70;;
3189;SDS011;1606;51.946;10.558;2023-04-08T01:48:13;14.27;;;7.50;;
3189;SDS011;1606;51.946;10.558;2023-04-08T01:50:41;15.37;;;7.93;;
3189;SDS011;1606;51.946;10.558;2023-04-08T01:53:10;12.40;;;6.33;;
3189;SDS011;1606;51.946;10.558;2023-04-08T01:55:39;13.40;;;7.80;;
3189;SDS011;1606;51.946;10.558;2023-04-08T01:58:08;12.90;;;6.60;;
3189;SDS011;1606;51.946;10.558;2023-04-08T02:00:44;13.53;;;7.00;;
3189;SDS011;1606;51.946;10.558;2023-04-08T02:03:13;11.50;;;6.47;;
3189;SDS011;1606;51.946;10.558;2023-04-08T02:05:45;13.77;;;6.67;;
3189;SDS011;1606;51.946;10.558;2023-04-08T02:08:13;12.73;;;7.10;;
3189;SDS011;1606;51.946;10.558;2023-04-08T02:10:40;15.80;;;8.47;;
3189;SDS011;1606;51.946;10.558;2023-04-08T02:13:08;13.73;;;6.80;;
3189;SDS011;1606;51.946;10.558;2023-04-08T02:15:37;12.60;;;5.90;;
3189;SDS011;1606;51.946;10.558;2023-04-08T02:18:10;11.90;;;6.37;;
3189;SDS011;1606;51.946;10.558;2023-04-08T02:20:42;12.93;;;6.47;;
3189;SDS011;1606;51.946;10.558;2023-04-08T02:23:14;13.33;;;6.50;;
3189;SDS011;1606;51.946;10.558;2023-04-08T02:25:47;13.50;;;6.60;;
3189;SDS011;1606;51.946;10.558;2023-04-08T02:28:16;12.50;;;6.67;;
3189;SDS011;1606;51.946;10.558;2023-04-08T02:30:47;13.63;;;6.87;;
3189;SDS011;1606;51.946;10.558;2023-04-08T02:33:18;17.20;;;7.47;;
3189;SDS011;1606;51.946;10.558;2023-04-08T02:35:47;16.45;;;9.20;;
3189;SDS011;1606;51.946;10.558;2023-04-08T02:38:19;13.57;;;6.97;;
3189;SDS011;1606;51.946;10.558;2023-04-08T02:40:49;17.10;;;8.17;;
3189;SDS011;1606;51.946;10.558;2023-04-08T02:43:17;14.80;;;8.17;;
3189;SDS011;1606;51.946;10.558;2023-04-08T02:45:44;16.83;;;8.30;;
3189;SDS011;1606;51.946;10.558;2023-04-08T02:48:12;15.33;;;8.70;;
3189;SDS011;1606;51.946;10.558;2023-04-08T02:50:41;14.17;;;8.10;;
3189;SDS011;1606;51.946;10.558;2023-04-08T02:53:09;17.27;;;8.80;;
3189;SDS011;1606;51.946;10.558;2023-04-08T02:55:38;16.47;;;9.80;;
3189;SDS011;1606;51.946;10.558;2023-04-08T02:58:05;21.23;;;9.43;;
3189;SDS011;1606;51.946;10.558;2023-04-08T03:00:33;16.17;;;8.90;;
3189;SDS011;1606;51.946;10.558;2023-04-08T03:03:02;16.27;;;9.57;;
3189;SDS011;1606;51.946;10.558;2023-04-08T03:05:30;16.23;;;9.80;;
3189;SDS011;1606;51.946;10.558;2023-04-08T03:07:59;18.27;;;9.87;;
3189;SDS011;1606;51.946;10.558;2023-04-08T03:10:27;17.93;;;10.40;;
3189;SDS011;1606;51.946;10.558;2023-04-08T03:12:55;14.30;;;8.60;;
3189;SDS011;1606;51.946;10.558;2023-04-08T03:15:23;16.80;;;9.90;;
3189;SDS011;1606;51.946;10.558;2023-04-08T03:17:50;22.60;;;11.10;;
3189;SDS011;1606;51.946;10.558;2023-04-08T03:20:18;16.60;;;9.63;;
3189;SDS011;1606;51.946;10.558;2023-04-08T03:22:46;17.37;;;10.43;;
3189;SDS011;1606;51.946;10.558;2023-04-08T03:25:15;16.83;;;10.80;;
3189;SDS011;1606;51.946;10.558;2023-04-08T03:27:43;14.97;;;8.50;;
3189;SDS011;1606;51.946;10.558;2023-04-08T03:30:11;19.47;;;10.97;;
3189;SDS011;1606;51.946;10.558;2023-04-08T03:32:39;20.47;;;11.30;;
3189;SDS011;1606;51.946;10.558;2023-04-08T03:35:08;20.00;;;11.10;;
3189;SDS011;1606;51.946;10.558;2023-04-08T03:37:36;20.30;;;11.27;;
3189;SDS011;1606;51.946;10.558;2023-04-08T03:40:04;19.00;;;10.50;;
3189;SDS011;1606;51.946;10.558;2023-04-08T03:42:34;19.10;;;11.40;;
3189;SDS011;1606;51.946;10.558;2023-04-08T03:45:02;22.20;;;11.47;;
3189;SDS011;1606;51.946;10.558;2023-04-08T03:47:30;19.50;;;11.23;;
3189;SDS011;1606;51.946;10.558;2023-04-08T03:49:57;19.10;;;10.37;;
3189;SDS011;1606;51.946;10.558;2023-04-08T03:52:25;18.47;;;11.00;;
3189;SDS011;1606;51.946;10.558;2023-04-08T03:54:53;18.60;;;10.80;;
3189;SDS011;1606;51.946;10.558;2023-04-08T03:57:21;18.63;;;10.20;;
3189;SDS011;1606;51.946;10.558;2023-04-08T03:59:50;19.80;;;11.57;;
3189;SDS011;1606;51.946;10.558;2023-04-08T04:02:17;21.93;;;12.10;;
3189;SDS011;1606;51.946;10.558;2023-04-08T04:04:45;23.87;;;12.47;;
3189;SDS011;1606;51.946;10.558;2023-04-08T04:07:13;22.93;;;14.27;;
3189;SDS011;1606;51.946;10.558;2023-04-08T04:09:41;21.87;;;12.80;;
3189;SDS011;1606;51.946;10.558;2023-04-08T04:12:09;21.10;;;11.80;;
3189;SDS011;1606;51.946;10.558;2023-04-08T04:14:36;23.10;;;11.63;;
3189;SDS011;1606;51.946;10.558;2023-04-08T04:17:06;21.87;;;12.83;;
3189;SDS011;1606;51.946;10.558;2023-04-08T04:19:33;18.70;;;10.60;;
3189;SDS011;1606;51.946;10.558;2023-04-08T04:22:01;23.60;;;12.50;;
3189;SDS011;1606;51.946;10.558;2023-04-08T04:24:29;22.87;;;11.67;;
3189;SDS011;1606;51.946;10.558;2023-04-08T04:26:57;22.60;;;12.60;;
3189;SDS011;1606;51.946;10.558;2023-04-08T04:29:24;19.77;;;11.70;;
3189;SDS011;1606;51.946;10.558;2023-04-08T04:31:52;21.93;;;11.57;;
3189;SDS011;1606;51.946;10.558;2023-04-08T04:34:21;21.87;;;12.23;;
3189;SDS011;1606;51.946;10.558;2023-04-08T04:36:49;21.93;;;13.33;;
3189;SDS011;1606;51.946;10.558;2023-04-08T04:39:17;22.50;;;12.20;;
3189;SDS011;1606;51.946;10.558;2023-04-08T04:41:44;23.10;;;12.47;;
3189;SDS011;1606;51.946;10.558;2023-04-08T04:44:14;21.13;;;12.10;;
3189;SDS011;1606;51.946;10.558;2023-04-08T04:46:42;24.93;;;12.50;;
3189;SDS011;1606;51.946;10.558;2023-04-08T04:49:09;21.97;;;11.67;;
3189;SDS011;1606;51.946;10.558;2023-04-08T04:51:39;21.67;;;10.30;;
3189;SDS011;1606;51.946;10.558;2023-04-08T04:54:06;21.67;;;12.00;;
3189;SDS011;1606;51.946;10.558;2023-04-08T04:56:34;19.73;;;11.13;;
3189;SDS011;1606;51.946;10.558;2023-04-08T04:59:02;21.23;;;11.30;;
3189;SDS011;1606;51.946;10.558;2023-04-08T05:01:30;20.13;;;10.50;;
3189;SDS011;1606;51.946;10.558;2023-04-08T05:03:58;25.73;;;11.30;;
3189;SDS011;1606;51.946;10.558;2023-04-08T05:06:26;22.10;;;11.20;;
3189;SDS011;1606;51.946;10.558;2023-04-08T05:08:55;22.70;;;10.87;;
3189;SDS011;1606;51.946;10.558;2023-04-08T05:11:23;19.30;;;10.80;;
3189;SDS011;1606;51.946;10.558;2023-04-08T05:13:51;21.10;;;10.07;;
3189;SDS011;1606;51.946;10.558;2023-04-08T05:16:19;20.70;;;12.60;;
3189;SDS011;1606;51.946;10.558;2023-04-08T05:18:46;18.47;;;9.50;;
3189;SDS011;1606;51.946;10.558;2023-04-08T05:21:14;18.40;;;9.87;;
3189;SDS011;1606;51.946;10.558;2023-04-08T05:23:42;21.50;;;10.60;;
3189;SDS011;1606;51.946;10.558;2023-04-08T05:26:11;20.90;;;10.43;;
3189;SDS011;1606;51.946;10.558;2023-04-08T05:28:41;21.37;;;10.70;;
3189;SDS011;1606;51.946;10.558;2023-04-08T05:31:09;20.77;;;11.03;;
3189;SDS011;1606;51.946;10.558;2023-04-08T05:33:37;21.00;;;11.30;;
3189;SDS011;1606;51.946;10.558;2023-04-08T05:36:05;19.93;;;10.33;;
3189;SDS011;1606;51.946;10.558;2023-04-08T05:38:33;20.30;;;10.67;;
3189;SDS011;1606;51.946;10.558;2023-04-08T05:41:01;17.67;;;10.37;;
3189;SDS011;1606;51.946;10.558;2023-04-08T05:43:31;18.30;;;10.77;;
3189;SDS011;1606;51.946;10.558;2023-04-08T05:45:59;21.60;;;11.63;;
3189;SDS011;1606;51.946;10.558;2023-04-08T05:48:26;20.63;;;11.23;;
3189;SDS011;1606;51.946;10.558;2023-04-08T05:50:54;18.70;;;10.47;;
3189;SDS011;1606;51.946;10.558;2023-04-08T05:53:22;21.60;;;13.30;;
3189;SDS011;1606;51.946;10.558;2023-04-08T05:55:50;19.50;;;11.57;;
3189;SDS011;1606;51.946;10.558;2023-04-08T05:58:18;19.07;;;10.80;;
3189;SDS011;1606;51.946;10.558;2023-04-08T06:00:47;18.90;;;10.90;;
3189;SDS011;1606;51.946;10.558;2023-04-08T06:03:15;24.00;;;11.70;;
3189;SDS011;1606;51.946;10.558;2023-04-08T06:05:45;22.55;;;13.18;;
3189;SDS011;1606;51.946;10.558;2023-04-08T06:08:13;20.00;;;11.73;;
3189;SDS011;1606;51.946;10.558;2023-04-08T06:10:47;23.13;;;10.80;;
3189;SDS011;1606;51.946;10.558;2023-04-08T06:13:15;19.13;;;10.00;;
3189;SDS011;1606;51.946;10.558;2023-04-08T06:15:43;22.43;;;11.30;;
3189;SDS011;1606;51.946;10.558;2023-04-08T06:18:12;17.93;;;10.50;;
3189;SDS011;1606;51.946;10.558;2023-04-08T06:20:39;18.13;;;10.33;;
3189;SDS011;1606;51.946;10.558;2023-04-08T06:23:07;26.33;;;14.70;;
3189;SDS011;1606;51.946;10.558;2023-04-08T06:25:35;22.20;;;12.77;;
3189;SDS011;1606;51.946;10.558;2023-04-08T06:28:03;21.73;;;12.07;;
3189;SDS011;1606;51.946;10.558;2023-04-08T06:30:31;22.20;;;11.80;;
3189;SDS011;1606;51.946;10.558;2023-04-08T06:32:58;20.43;;;10.90;;
3189;SDS011;1606;51.946;10.558;2023-04-08T06:35:27;21.23;;;10.83;;
3189;SDS011;1606;51.946;10.558;2023-04-08T06:37:57;21.03;;;11.80;;
3189;SDS011;1606;51.946;10.558;2023-04-08T06:40:25;20.10;;;10.90;;
3189;SDS011;1606;51.946;10.558;2023-04-08T06:42:53;19.37;;;10.50;;
3189;SDS011;1606;51.946;10.558;2023-04-08T06:45:21;16.93;;;9.37;;
3189;SDS011;1606;51.946;10.558;2023-04-08T06:47:49;19.50;;;9.20;;
3189;SDS011;1606;51.946;10.558;2023-04-08T06:50:16;16.17;;;8.67;;
3189;SDS011;1606;51.946;10.558;2023-04-08T06:52:46;16.60;;;8.57;;
3189;SDS011;1606;51.946;10.558;2023-04-08T06:55:13;17.70;;;9.10;;
3189;SDS011;1606;51.946;10.558;2023-04-08T06:57:41;15.60;;;8.33;;
3189;SDS011;1606;51.946;10.558;2023-04-08T07:00:09;21.17;;;10.50;;
3189;SDS011;1606;51.946;10.558;2023-04-08T07:02:37;19.40;;;10.32;;
3189;SDS011;1606;51.946;10.558;2023-04-08T07:05:06;23.00;;;13.33;;
3189;SDS011;1606;51.946;10.558;2023-04-08T07:07:34;19.70;;;10.70;;
3189;SDS011;1606;51.946;10.558;2023-04-08T07:10:04;17.73;;;9.30;;
3189;SDS011;1606;51.946;10.558;2023-04-08T07:12:36;16.90;;;8.57;;
3189;SDS011;1606;51.946;10.558;2023-04-08T07:15:04;17.67;;;7.60;;
3189;SDS011;1606;51.946;10.558;2023-04-08T07:17:32;15.10;;;8.10;;
3189;SDS011;1606;51.946;10.558;2023-04-08T07:20:00;15.93;;;8.33;;
3189;SDS011;1606;51.946;10.558;2023-04-08T07:22:28;18.03;;;7.87;;
3189;SDS011;1606;51.946;10.558;2023-04-08T07:24:56;19.50;;;9.77;;
3189;SDS011;1606;51.946;10.558;2023-04-08T07:27:25;14.63;;;7.90;;
3189;SDS011;1606;51.946;10.558;2023-04-08T07:29:53;15.87;;;8.27;;
3189;SDS011;1606;51.946;10.558;2023-04-08T07:32:21;18.60;;;8.80;;
3189;SDS011;1606;51.946;10.558;2023-04-08T07:34:48;18.93;;;8.97;;
3189;SDS011;1606;51.946;10.558;2023-04-08T07:37:16;16.63;;;7.80;;
3189;SDS011;1606;51.946;10.558;2023-04-08T07:39:44;16.70;;;8.10;;
3189;SDS011;1606;51.946;10.558;2023-04-08T07:42:12;14.10;;;7.10;;
3189;SDS011;1606;51.946;10.558;2023-04-08T07:44:41;14.90;;;7.53;;
3189;SDS011;1606;51.946;10.558;2023-04-08T07:47:09;20.33;;;8.97;;
3189;SDS011;1606;51.946;10.558;2023-04-08T07:49:37;15.63;;;7.60;;
3189;SDS011;1606;51.946;10.558;2023-04-08T07:52:05;16.33;;;8.77;;
3189;SDS011;1606;51.946;10.558;2023-04-08T07:54:33;17.37;;;8.27;;
3189;SDS011;1606;51.946;10.558;2023-04-08T07:57:00;20.73;;;9.47;;
3189;SDS011;1606;51.946;10.558;2023-04-08T07:59:28;14.80;;;9.00;;
3189;SDS011;1606;51.946;10.558;2023-04-08T08:01:59;14.50;;;7.23;;
3189;SDS011;1606;51.946;10.558;2023-04-08T08:04:27;16.00;;;8.03;;
3189;SDS011;1606;51.946;10.558;2023-04-08T08:06:56;15.90;;;8.40;;
3189;SDS011;1606;51.946;10.558;2023-04-08T08:09:24;18.90;;;8.10;;
3189;SDS011;1606;51.946;10.558;2023-04-08T08:11:51;14.10;;;7.03;;
3189;SDS011;1606;51.946;10.558;2023-04-08T08:14:19;18.10;;;8.23;;
3189;SDS011;1606;51.946;10.558;2023-04-08T08:16:47;14.73;;;7.20;;
3189;SDS011;1606;51.946;10.558;2023-04-08T08:19:17;17.80;;;8.50;;
3189;SDS011;1606;51.946;10.558;2023-04-08T08:21:44;14.90;;;7.40;;
3189;SDS011;1606;51.946;10.558;2023-04-08T08:24:12;16.40;;;8.50;;
3189;SDS011;1606;51.946;10.558;2023-04-08T08:26:40;15.10;;;6.40;;
3189;SDS011;1606;51.946;10.558;2023-04-08T08:29:10;15.13;;;6.20;;
3189;SDS011;1606;51.946;10.558;2023-04-08T08:31:37;22.57;;;7.37;;
3189;SDS011;1606;51.946;10.558;2023-04-08T08:34:05;12.97;;;5.83;;
3189;SDS011;1606;51.946;10.558;2023-04-08T08:36:34;15.90;;;8.30;;
3189;SDS011;1606;51.946;10.558;2023-04-08T08:39:02;12.93;;;6.07;;
3189;SDS011;1606;51.946;10.558;2023-04-08T08:41:33;14.00;;;6.50;;
3189;SDS011;1606;51.946;10.558;2023-04-08T08:44:04;11.73;;;6.00;;
3189;SDS011;1606;51.946;10.558;2023-04-08T08:46:33;12.03;;;5.27;;
3189;SDS011;1606;51.946;10.558;2023-04-08T08:49:01;13.03;;;6.13;;
3189;SDS011;1606;51.946;10.558;2023-04-08T08:51:28;11.60;;;5.50;;
3189;SDS011;1606;51.946;10.558;2023-04-08T08:54:02;12.80;;;6.10;;
3189;SDS011;1606;51.946;10.558;2023-04-08T08:56:31;13.93;;;6.37;;
3189;SDS011;1606;51.946;10.558;2023-04-08T08:58:59;11.87;;;5.87;;
3189;SDS011;1606;51.946;10.558;2023-04-08T09:01:30;12.70;;;5.90;;
3189;SDS011;1606;51.946;10.558;2023-04-08T09:04:06;12.37;;;5.97;;
3189;SDS011;1606;51.946;10.558;2023-04-08T09:06:36;11.80;;;5.70;;
3189;SDS011;1606;51.946;10.558;2023-04-08T09:09:05;13.53;;;6.17;;
3189;SDS011;1606;51.946;10.558;2023-04-08T09:11:36;12.80;;;5.70;;
3189;SDS011;1606;51.946;10.558;2023-04-08T09:14:04;12.37;;;5.90;;
3189;SDS011;1606;51.946;10.558;2023-04-08T09:16:43;14.83;;;5.83;;
3189;SDS011;1606;51.946;10.558;2023-04-08T09:19:11;12.00;;;6.10;;
3189;SDS011;1606;51.946;10.558;2023-04-08T09:21:39;14.67;;;6.00;;
3189;SDS011;1606;51.946;10.558;2023-04-08T09:24:08;13.70;;;5.63;;
3189;SDS011;1606;51.946;10.558;2023-04-08T09:26:53;11.10;;;5.63;;
3189;SDS011;1606;51.946;10.558;2023-04-08T09:29:22;12.07;;;5.53;;
3189;SDS011;1606;51.946;10.558;2023-04-08T09:31:53;10.47;;;5.23;;
3189;SDS011;1606;51.946;10.558;2023-04-08T09:34:24;11.00;;;5.10;;
3189;SDS011;1606;51.946;10.558;2023-04-08T09:36:53;11.90;;;5.40;;
3189;SDS011;1606;51.946;10.558;2023-04-08T09:39:23;11.60;;;5.23;;
3189;SDS011;1606;51.946;10.558;2023-04-08T09:41:51;12.47;;;5.67;;
3189;SDS011;1606;51.946;10.558;2023-04-08T09:44:24;12.33;;;5.67;;
3189;SDS011;1606;51.946;10.558;2023-04-08T09:46:55;9.90;;;4.93;;
3189;SDS011;1606;51.946;10.558;2023-04-08T09:49:28;12.73;;;5.70;;
3189;SDS011;1606;51.946;10.558;2023-04-08T09:52:03;11.93;;;5.27;;
3189;SDS011;1606;51.946;10.558;2023-04-08T09:54:39;11.57;;;4.77;;
3189;SDS011;1606;51.946;10.558;2023-04-08T09:57:15;10.70;;;5.20;;
3189;SDS011;1606;51.946;10.558;2023-04-08T10:00:04;12.90;;;5.67;;
3189;SDS011;1606;51.946;10.558;2023-04-08T10:02:39;12.33;;;5.90;;
3189;SDS011;1606;51.946;10.558;2023-04-08T10:05:12;12.60;;;6.33;;
3189;SDS011;1606;51.946;10.558;2023-04-08T10:07:40;11.20;;;5.97;;
3189;SDS011;1606;51.946;10.558;2023-04-08T10:10:09;11.60;;;6.00;;
3189;SDS011;1606;51.946;10.558;2023-04-08T10:12:38;12.70;;;5.90;;
3189;SDS011;1606;51.946;10.558;2023-04-08T10:15:22;10.93;;;5.67;;
3189;SDS011;1606;51.946;10.558;2023-04-08T10:17:52;12.57;;;6.70;;
3189;SDS011;1606;51.946;10.558;2023-04-08T10:23:07;11.37;;;5.27;;
3189;SDS011;1606;51.946;10.558;2023-04-08T10:25:40;13.53;;;5.90;;
3189;SDS011;1606;51.946;10.558;2023-04-08T10:30:55;13.00;;;6.33;;
3189;SDS011;1606;51.946;10.558;2023-04-08T10:33:30;13.60;;;6.43;;
3189;SDS011;1606;51.946;10.558;2023-04-08T10:36:00;12.93;;;6.63;;
3189;SDS011;1606;51.946;10.558;2023-04-08T10:38:36;15.03;;;6.27;;
3189;SDS011;1606;51.946;10.558;2023-04-08T10:41:06;13.73;;;6.40;;
3189;SDS011;1606;51.946;10.558;2023-04-08T10:43:33;14.97;;;7.10;;
3189;SDS011;1606;51.946;10.558;2023-04-08T10:46:02;14.23;;;6.63;;
3189;SDS011;1606;51.946;10.558;2023-04-08T10:48:30;13.03;;;7.13;;
3189;SDS011;1606;51.946;10.558;2023-04-08T10:50:58;13.67;;;6.40;;
3189;SDS011;1606;51.946;10.558;2023-04-08T10:53:27;10.97;;;5.90;;
3189;SDS011;1606;51.946;10.558;2023-04-08T10:56:03;14.63;;;6.83;;
3189;SDS011;1606;51.946;10.558;2023-04-08T10:58:33;12.17;;;6.43;;
3189;SDS011;1606;51.946;10.558;2023-04-08T11:01:02;14.67;;;7.03;;
3189;SDS011;1606;51.946;10.558;2023-04-08T11:03:31;23.20;;;7.20;;
3189;SDS011;1606;51.946;10.558;2023-04-08T11:06:00;14.70;;;6.83;;
3189;SDS011;1606;51.946;10.558;2023-04-08T11:08:28;14.30;;;7.67;;
3189;SDS011;1606;51.946;10.558;2023-04-08T11:10:57;16.53;;;7.50;;
3189;SDS011;1606;51.946;10.558;2023-04-08T11:13:26;13.23;;;6.40;;
3189;SDS011;1606;51.946;10.558;2023-04-08T11:15:55;12.73;;;6.40;;
3189;SDS011;1606;51.946;10.558;2023-04-08T11:18:24;15.60;;;7.60;;
3189;SDS011;1606;51.946;10.558;2023-04-08T11:20:52;14.67;;;7.93;;
3189;SDS011;1606;51.946;10.558;2023-04-08T11:23:23;15.10;;;7.23;;
3189;SDS011;1606;51.946;10.558;2023-04-08T11:25:51;16.50;;;8.40;;
3189;SDS011;1606;51.946;10.558;2023-04-08T11:28:19;13.80;;;7.90;;
3189;SDS011;1606;51.946;10.558;2023-04-08T11:30:48;15.77;;;7.47;;
3189;SDS011;1606;51.946;10.558;2023-04-08T11:33:17;14.83;;;7.53;;
3189;SDS011;1606;51.946;10.558;2023-04-08T11:35:49;14.40;;;7.50;;
3189;SDS011;1606;51.946;10.558;2023-04-08T11:38:20;14.33;;;7.60;;
3189;SDS011;1606;51.946;10.558;2023-04-08T11:40:52;15.30;;;8.00;;
3189;SDS011;1606;51.946;10.558;2023-04-08T11:43:20;14.77;;;7.53;;
3189;SDS011;1606;51.946;10.558;2023-04-08T11:45:48;16.80;;;9.10;;
3189;SDS011;1606;51.946;10.558;2023-04-08T11:48:18;16.70;;;8.47;;
3189;SDS011;1606;51.946;10.558;2023-04-08T11:50:46;13.30;;;7.43;;
3189;SDS011;1606;51.946;10.558;2023-04-08T11:53:15;16.30;;;7.47;;
3189;SDS011;1606;51.946;10.558;2023-04-08T11:55:44;16.97;;;7.57;;
3189;SDS011;1606;51.946;10.558;2023-04-08T11:58:13;15.77;;;8.07;;
3189;SDS011;1606;51.946;10.558;2023-04-08T12:00:41;16.77;;;9.00;;
3189;SDS011;1606;51.946;10.558;2023-04-08T12:03:10;15.80;;;9.87;;
3189;SDS011;1606;51.946;10.558;2023-04-08T12:05:40;15.80;;;8.07;;
3189;SDS011;1606;51.946;10.558;2023-04-08T12:08:08;16.53;;;7.63;;
3189;SDS011;1606;51.946;10.558;2023-04-08T12:10:36;17.90;;;9.17;;
3189;SDS011;1606;51.946;10.558;2023-04-08T12:13:04;17.53;;;8.67;;
3189;SDS011;1606;51.946;10.558;2023-04-08T12:15:31;17.20;;;8.20;;
3189;SDS011;1606;51.946;10.558;2023-04-08T12:17:59;14.90;;;8.07;;
3189;SDS011;1606;51.946;10.558;2023-04-08T12:20:27;17.27;;;9.20;;
3189;SDS011;1606;51.946;10.558;2023-04-08T12:22:56;16.30;;;8.87;;
3189;SDS011;1606;51.946;10.558;2023-04-08T12:25:24;16.97;;;9.30;;
3189;SDS011;1606;51.946;10.558;2023-04-08T12:27:52;16.43;;;8.93;;
3189;SDS011;1606;51.946;10.558;2023-04-08T12:30:20;20.13;;;9.33;;
3189;SDS011;1606;51.946;10.558;2023-04-08T12:32:48;17.57;;;8.80;;
3189;SDS011;1606;51.946;10.558;2023-04-08T12:35:16;15.30;;;9.70;;
3189;SDS011;1606;51.946;10.558;2023-04-08T12:37:43;16.47;;;9.83;;
3189;SDS011;1606;51.946;10.558;2023-04-08T12:40:26;18.47;;;9.33;;
3189;SDS011;1606;51.946;10.558;2023-04-08T12:42:53;20.50;;;11.97;;
3189;SDS011;1606;51.946;10.558;2023-04-08T12:45:21;19.50;;;10.27;;
3189;SDS011;1606;51.946;10.558;2023-04-08T12:47:49;17.90;;;9.60;;
3189;SDS011;1606;51.946;10.558;2023-04-08T12:50:17;20.00;;;11.68;;
3189;SDS011;1606;51.946;10.558;2023-04-08T12:52:45;16.77;;;9.60;;
3189;SDS011;1606;51.946;10.558;2023-04-08T12:55:12;21.93;;;12.60;;
3189;SDS011;1606;51.946;10.558;2023-04-08T12:57:42;19.47;;;11.17;;
3189;SDS011;1606;51.946;10.558;2023-04-08T13:00:10;17.53;;;10.47;;
3189;SDS011;1606;51.946;10.558;2023-04-08T13:02:39;18.63;;;11.50;;
3189;SDS011;1606;51.946;10.558;2023-04-08T13:05:08;17.70;;;10.67;;
3189;SDS011;1606;51.946;10.558;2023-04-08T13:07:36;21.70;;;11.93;;
3189;SDS011;1606;51.946;10.558;2023-04-08T13:10:04;18.80;;;9.70;;
3189;SDS011;1606;51.946;10.558;2023-04-08T13:12:32;18.17;;;11.40;;
3189;SDS011;1606;51.946;10.558;2023-04-08T13:15:02;18.60;;;10.20;;
3189;SDS011;1606;51.946;10.558;2023-04-08T13:17:31;20.70;;;11.67;;
3189;SDS011;1606;51.946;10.558;2023-04-08T13:19:59;20.23;;;11.70;;
3189;SDS011;1606;51.946;10.558;2023-04-08T13:22:27;18.63;;;11.50;;
3189;SDS011;1606;51.946;10.558;2023-04-08T13:24:55;19.50;;;10.70;;
3189;SDS011;1606;51.946;10.558;2023-04-08T13:27:23;19.90;;;11.37;;
3189;SDS011;1606;51.946;10.558;2023-04-08T13:29:50;17.47;;;9.80;;
3189;SDS011;1606;51.946;10.558;2023-04-08T13:32:20;21.47;;;12.97;;
3189;SDS011;1606;51.946;10.558;2023-04-08T13:34:47;24.03;;;12.53;;
3189;SDS011;1606;51.946;10.558;2023-04-08T13:37:18;21.80;;;11.73;;
3189;SDS011;1606;51.946;10.558;2023-04-08T13:39:46;21.80;;;11.77;;
3189;SDS011;1606;51.946;10.558;2023-04-08T13:42:14;22.30;;;13.27;;
3189;SDS011;1606;51.946;10.558;2023-04-08T13:44:41;20.83;;;11.70;;
3189;SDS011;1606;51.946;10.558;2023-04-08T13:47:09;21.10;;;13.40;;
3189;SDS011;1606;51.946;10.558;2023-04-08T13:49:40;20.63;;;12.07;;
3189;SDS011;1606;51.946;10.558;2023-04-08T13:52:08;23.43;;;13.23;;
3189;SDS011;1606;51.946;10.558;2023-04-08T13:54:36;27.20;;;14.07;;
3189;SDS011;1606;51.946;10.558;2023-04-08T13:57:10;23.38;;;13.20;;
3189;SDS011;1606;51.946;10.558;2023-04-08T13:59:43;24.00;;;14.50;;
3189;SDS011;1606;51.946;10.558;2023-04-08T14:02:10;22.40;;;12.80;;
3189;SDS011;1606;51.946;10.558;2023-04-08T14:04:40;23.37;;;12.80;;
3189;SDS011;1606;51.946;10.558;2023-04-08T14:07:11;23.67;;;12.33;;
3189;SDS011;1606;51.946;10.558;2023-04-08T14:09:40;24.20;;;11.83;;
3189;SDS011;1606;51.946;10.558;2023-04-08T14:12:09;20.30;;;12.07;;
3189;SDS011;1606;51.946;10.558;2023-04-08T14:14:36;23.17;;;12.47;;
3189;SDS011;1606;51.946;10.558;2023-04-08T14:17:04;19.80;;;10.73;;
3189;SDS011;1606;51.946;10.558;2023-04-08T14:19:32;22.87;;;12.10;;
3189;SDS011;1606;51.946;10.558;2023-04-08T14:22:01;22.20;;;12.70;;
3189;SDS011;1606;51.946;10.558;2023-04-08T14:24:29;22.10;;;13.10;;
3189;SDS011;1606;51.946;10.558;2023-04-08T14:26:57;24.43;;;13.37;;
3189;SDS011;1606;51.946;10.558;2023-04-08T14:29:25;23.60;;;12.90;;
3189;SDS011;1606;51.946;10.558;2023-04-08T14:31:52;19.57;;;11.43;;
3189;SDS011;1606;51.946;10.558;2023-04-08T14:34:22;21.77;;;12.50;;
3189;SDS011;1606;51.946;10.558;2023-04-08T14:36:49;23.77;;;13.50;;
3189;SDS011;1606;51.946;10.558;2023-04-08T14:39:19;22.33;;;13.53;;
3189;SDS011;1606;51.946;10.558;2023-04-08T14:41:46;23.37;;;13.00;;
3189;SDS011;1606;51.946;10.558;2023-04-08T14:44:14;23.23;;;13.03;;
3189;SDS011;1606;51.946;10.558;2023-04-08T14:46:42;24.83;;;13.20;;
3189;SDS011;1606;51.946;10.558;2023-04-08T14:49:09;24.83;;;13.80;;
3189;SDS011;1606;51.946;10.558;2023-04-08T14:51:38;33.97;;;13.97;;
3189;SDS011;1606;51.946;10.558;2023-04-08T14:54:06;22.47;;;13.50;;
3189;SDS011;1606;51.946;10.558;2023-04-08T14:56:35;22.50;;;13.10;;
3189;SDS011;1606;51.946;10.558;2023-04-08T14:59:03;26.20;;;14.03;;